createdAt,value
2017-08-11T00:00:05.076Z,1010.05
2017-08-11T00:00:45.459Z,1010.06
2017-08-11T00:01:25.876Z,1010.09
2017-08-11T00:02:06.273Z,1010.09
2017-08-11T00:02:46.663Z,1010.11
2017-08-11T00:03:27.056Z,1010.1
2017-08-11T00:04:07.456Z,1010.08
2017-08-11T00:04:47.832Z,1010.1
2017-08-11T00:05:28.256Z,1010.08
2017-08-11T00:06:08.680Z,1010.1
2017-08-11T00:06:49.071Z,1010.12
2017-08-11T00:07:29.492Z,1010.07
2017-08-11T00:08:09.873Z,1010.05
2017-08-11T00:08:50.302Z,1010.06
2017-08-11T00:09:30.675Z,1009.98
2017-08-11T00:10:11.100Z,1009.96
2017-08-11T00:10:51.468Z,1009.96
2017-08-11T00:11:31.885Z,1009.95
2017-08-11T00:12:12.252Z,1009.94
2017-08-11T00:12:52.664Z,1009.87
2017-08-11T00:13:33.071Z,1009.91
2017-08-11T00:14:13.468Z,1009.91
2017-08-11T00:14:53.837Z,1009.94
2017-08-11T00:15:34.250Z,1009.91
2017-08-11T00:16:14.666Z,1009.9
2017-08-11T00:16:55.073Z,1009.9
2017-08-11T00:17:35.450Z,1009.88
2017-08-11T00:18:15.869Z,1009.85
2017-08-11T00:18:56.298Z,1009.87
2017-08-11T00:19:36.679Z,1009.84
2017-08-11T00:20:17.137Z,1009.83
2017-08-11T00:20:57.523Z,1009.81
2017-08-11T00:21:37.918Z,1009.86
2017-08-11T00:22:18.297Z,1009.83
2017-08-11T00:22:58.696Z,1009.82
2017-08-11T00:23:39.073Z,1009.82
2017-08-11T00:24:19.491Z,1009.79
2017-08-11T00:25:02.751Z,1009.77
2017-08-11T00:25:43.228Z,1009.8
2017-08-11T00:26:23.628Z,1009.82
2017-08-11T00:27:04.044Z,1009.8
2017-08-11T00:27:44.422Z,1009.81
2017-08-11T00:28:24.788Z,1009.84
2017-08-11T00:29:05.209Z,1009.83
2017-08-11T00:29:45.636Z,1009.79
2017-08-11T00:30:26.113Z,1009.79
2017-08-11T00:31:06.536Z,1009.79
2017-08-11T00:31:46.926Z,1009.78
2017-08-11T00:32:27.332Z,1009.79
2017-08-11T00:33:07.748Z,1009.79
2017-08-11T00:33:48.156Z,1009.79
2017-08-11T00:34:28.605Z,1009.81
2017-08-11T00:35:09.030Z,1009.82
2017-08-11T00:35:49.404Z,1009.84
2017-08-11T00:36:29.849Z,1009.84
2017-08-11T00:37:10.237Z,1009.81
2017-08-11T00:37:50.643Z,1009.75
2017-08-11T00:38:31.068Z,1009.78
2017-08-11T00:39:11.481Z,1009.77
2017-08-11T00:39:51.877Z,1009.77
2017-08-11T00:40:32.315Z,1009.71
2017-08-11T00:41:12.719Z,1009.68
2017-08-11T00:41:53.093Z,1009.72
2017-08-11T00:42:33.500Z,1009.71
2017-08-11T00:43:13.877Z,1009.7
2017-08-11T00:43:54.333Z,1009.74
2017-08-11T00:44:34.686Z,1009.71
2017-08-11T00:45:15.070Z,1009.69
2017-08-11T00:45:55.483Z,1009.72
2017-08-11T00:46:35.959Z,1009.71
2017-08-11T00:47:16.365Z,1009.71
2017-08-11T00:47:56.755Z,1009.71
2017-08-11T00:48:37.193Z,1009.67
2017-08-11T00:49:17.587Z,1009.65
2017-08-11T00:49:57.989Z,1009.69
2017-08-11T00:50:38.478Z,1009.64
2017-08-11T00:51:18.972Z,1009.67
2017-08-11T00:51:59.371Z,1009.64
2017-08-11T00:52:39.845Z,1009.61
2017-08-11T00:53:20.188Z,1009.6
2017-08-11T00:54:00.588Z,1009.58
2017-08-11T00:54:40.999Z,1009.56
2017-08-11T00:55:21.437Z,1009.53
2017-08-11T00:56:01.856Z,1009.51
2017-08-11T00:56:42.285Z,1009.52
2017-08-11T00:57:22.712Z,1009.5
2017-08-11T00:58:03.124Z,1009.51
2017-08-11T00:58:43.520Z,1009.49
2017-08-11T00:59:23.923Z,1009.5
2017-08-11T01:00:04.425Z,1009.44
2017-08-11T01:04:39.033Z,1009.41
2017-08-11T01:05:36.519Z,1009.35
2017-08-11T01:06:35.737Z,1009.37
2017-08-11T01:07:34.160Z,1009.29
2017-08-11T01:08:30.347Z,1009.31
2017-08-11T01:09:26.820Z,1009.23
2017-08-11T01:10:23.711Z,1009.28
2017-08-11T01:11:20.526Z,1009.25
2017-08-11T01:12:16.644Z,1009.19
2017-08-11T01:13:14.906Z,1009.19
2017-08-11T01:14:10.857Z,1009.14
2017-08-11T01:15:11.492Z,1009.14
2017-08-11T01:16:06.740Z,1009.12
2017-08-11T01:16:50.616Z,1009.13
2017-08-11T01:17:31.576Z,1009.12
2017-08-11T01:18:12.015Z,1009.09
2017-08-11T01:18:57.108Z,1009.15
2017-08-11T01:21:04.126Z,1009.16
2017-08-11T01:21:44.148Z,1009.18
2017-08-11T01:22:24.659Z,1009.18
2017-08-11T01:23:05.027Z,1009.18
2017-08-11T01:23:45.452Z,1009.18
2017-08-11T01:24:25.847Z,1009.19
2017-08-11T01:25:06.358Z,1009.21
2017-08-11T01:25:46.741Z,1009.19
2017-08-11T01:26:27.320Z,1009.2
2017-08-11T01:27:07.830Z,1009.15
2017-08-11T01:27:48.291Z,1009.15
2017-08-11T01:28:28.716Z,1009.16
2017-08-11T01:29:09.084Z,1009.12
2017-08-11T01:29:49.474Z,1009.11
2017-08-11T01:30:29.847Z,1009.07
2017-08-11T01:31:10.369Z,1009.03
2017-08-11T01:31:50.778Z,1009.02
2017-08-11T01:32:31.194Z,1009.02
2017-08-11T01:33:11.661Z,1008.98
2017-08-11T01:33:52.469Z,1008.95
2017-08-11T01:34:32.869Z,1008.98
2017-08-11T01:35:14.713Z,1008.96
2017-08-11T01:35:55.037Z,1008.95
2017-08-11T01:36:35.464Z,1008.93
2017-08-11T01:37:15.956Z,1008.94
2017-08-11T01:37:56.365Z,1008.95
2017-08-11T01:38:36.784Z,1008.93
2017-08-11T01:39:17.295Z,1008.91
2017-08-11T01:39:57.695Z,1008.97
2017-08-11T01:40:38.106Z,1008.93
2017-08-11T01:41:18.462Z,1008.93
2017-08-11T01:41:58.843Z,1008.93
2017-08-11T01:42:39.265Z,1008.95
2017-08-11T01:43:19.619Z,1008.95
2017-08-11T01:44:00.064Z,1008.94
2017-08-11T01:44:40.495Z,1008.96
2017-08-11T01:45:20.975Z,1008.98
2017-08-11T01:46:01.346Z,1009
2017-08-11T01:46:41.720Z,1008.99
2017-08-11T01:47:22.098Z,1008.99
2017-08-11T01:48:02.559Z,1008.99
2017-08-11T01:48:42.969Z,1008.96
2017-08-11T01:49:23.410Z,1008.96
2017-08-11T01:50:03.885Z,1009
2017-08-11T01:50:44.300Z,1009.02
2017-08-11T01:51:24.662Z,1009.02
2017-08-11T01:52:05.060Z,1008.98
2017-08-11T01:52:45.756Z,1008.97
2017-08-11T01:53:26.211Z,1008.92
2017-08-11T01:54:06.570Z,1008.96
2017-08-11T01:54:47.372Z,1008.94
2017-08-11T01:55:27.585Z,1008.94
2017-08-11T01:56:08.341Z,1008.93
2017-08-11T01:56:48.699Z,1008.93
2017-08-11T01:57:29.159Z,1008.96
2017-08-11T01:58:09.639Z,1008.92
2017-08-11T01:58:50.166Z,1008.93
2017-08-11T01:59:30.444Z,1009.02
2017-08-11T02:00:10.864Z,1009.03
2017-08-11T02:00:51.322Z,1009
2017-08-11T02:01:31.691Z,1009.03
2017-08-11T02:02:12.198Z,1009.07
2017-08-11T02:02:52.600Z,1009.09
2017-08-11T02:03:33.101Z,1009.09
2017-08-11T02:04:13.419Z,1009.1
2017-08-11T02:04:53.827Z,1009.11
2017-08-11T02:05:34.210Z,1009.14
2017-08-11T02:06:14.880Z,1009.11
2017-08-11T02:06:55.370Z,1009.15
2017-08-11T02:07:35.749Z,1009.14
2017-08-11T02:08:16.204Z,1009.13
2017-08-11T02:08:56.754Z,1009.17
2017-08-11T02:09:37.231Z,1009.21
2017-08-11T02:10:17.662Z,1009.16
2017-08-11T02:10:58.251Z,1009.16
2017-08-11T02:11:38.621Z,1009.16
2017-08-11T02:12:19.086Z,1009.17
2017-08-11T02:12:59.445Z,1009.18
2017-08-11T02:13:39.985Z,1009.14
2017-08-11T02:14:20.246Z,1009.15
2017-08-11T02:15:00.659Z,1009.15
2017-08-11T02:15:41.112Z,1009.15
2017-08-11T02:16:21.886Z,1009.11
2017-08-11T02:17:02.407Z,1009.16
2017-08-11T02:17:42.808Z,1009.15
2017-08-11T02:18:23.155Z,1009.11
2017-08-11T02:19:03.602Z,1009.09
2017-08-11T02:19:44.094Z,1009.09
2017-08-11T02:20:24.566Z,1009.08
2017-08-11T02:21:05.006Z,1009.05
2017-08-11T02:21:45.388Z,1009.07
2017-08-11T02:22:27.011Z,1009.04
2017-08-11T02:23:07.410Z,1009.03
2017-08-11T02:23:48.679Z,1009
2017-08-11T02:24:29.200Z,1009.03
2017-08-11T02:25:10.862Z,1008.99
2017-08-11T02:25:51.382Z,1008.97
2017-08-11T02:26:31.684Z,1008.97
2017-08-11T02:27:12.765Z,1008.95
2017-08-11T02:27:53.180Z,1008.96
2017-08-11T02:28:36.056Z,1008.95
2017-08-11T02:29:16.046Z,1008.92
2017-08-11T02:29:57.116Z,1008.88
2017-08-11T02:30:37.362Z,1008.91
2017-08-11T02:31:18.837Z,1008.93
2017-08-11T02:31:59.138Z,1008.98
2017-08-11T02:32:39.585Z,1008.94
2017-08-11T02:33:21.711Z,1008.96
2017-08-11T02:34:02.258Z,1008.93
2017-08-11T02:34:42.754Z,1008.92
2017-08-11T02:35:23.151Z,1008.94
2017-08-11T02:36:03.868Z,1008.9
2017-08-11T02:36:44.977Z,1008.9
2017-08-11T02:37:26.250Z,1008.91
2017-08-11T02:38:06.674Z,1008.86
2017-08-11T02:38:47.603Z,1008.89
2017-08-11T02:39:27.918Z,1008.89
2017-08-11T02:40:08.789Z,1008.89
2017-08-11T02:40:49.156Z,1008.86
2017-08-11T02:41:32.353Z,1008.85
2017-08-11T02:42:12.927Z,1008.87
2017-08-11T02:42:56.146Z,1008.84
2017-08-11T02:43:36.604Z,1008.84
2017-08-11T02:44:16.988Z,1008.85
2017-08-11T02:44:57.743Z,1008.82
2017-08-11T02:45:39.726Z,1008.83
2017-08-11T02:46:19.870Z,1008.84
2017-08-11T02:47:00.701Z,1008.83
2017-08-11T02:47:41.089Z,1008.81
2017-08-11T02:48:21.524Z,1008.79
2017-08-11T02:49:02.049Z,1008.81
2017-08-11T02:49:42.406Z,1008.76
2017-08-11T02:50:22.975Z,1008.74
2017-08-11T02:51:03.854Z,1008.75
2017-08-11T02:51:44.395Z,1008.75
2017-08-11T02:52:26.273Z,1008.75
2017-08-11T02:53:06.985Z,1008.76
2017-08-11T02:53:48.944Z,1008.74
2017-08-11T02:54:29.491Z,1008.77
2017-08-11T02:55:10.014Z,1008.76
2017-08-11T02:55:51.722Z,1008.72
2017-08-11T02:56:31.688Z,1008.76
2017-08-11T02:57:12.068Z,1008.75
2017-08-11T02:57:52.697Z,1008.71
2017-08-11T02:58:33.242Z,1008.71
2017-08-11T02:59:14.194Z,1008.76
2017-08-11T02:59:54.613Z,1008.75
2017-08-11T03:00:35.197Z,1008.71
2017-08-11T03:01:16.857Z,1008.68
2017-08-11T03:01:57.350Z,1008.71
2017-08-11T03:02:37.677Z,1008.67
2017-08-11T03:03:18.095Z,1008.7
2017-08-11T03:03:58.582Z,1008.69
2017-08-11T03:04:39.810Z,1008.68
2017-08-11T03:05:20.215Z,1008.69
2017-08-11T03:06:00.970Z,1008.68
2017-08-11T03:06:41.375Z,1008.72
2017-08-11T03:07:21.860Z,1008.66
2017-08-11T03:08:03.525Z,1008.69
2017-08-11T03:08:44.084Z,1008.68
2017-08-11T03:09:24.527Z,1008.67
2017-08-11T03:10:04.981Z,1008.66
2017-08-11T03:10:46.615Z,1008.66
2017-08-11T03:11:28.828Z,1008.65
2017-08-11T03:12:10.437Z,1008.62
2017-08-11T03:12:53.929Z,1008.61
2017-08-11T03:13:36.972Z,1008.61
2017-08-11T03:14:18.053Z,1008.58
2017-08-11T03:14:59.085Z,1008.59
2017-08-11T03:15:39.573Z,1008.57
2017-08-11T03:16:20.558Z,1008.57
2017-08-11T03:17:01.353Z,1008.54
2017-08-11T03:17:41.736Z,1008.57
2017-08-11T03:18:22.668Z,1008.53
2017-08-11T03:19:03.402Z,1008.59
2017-08-11T03:19:44.117Z,1008.56
2017-08-11T03:20:24.602Z,1008.54
2017-08-11T03:21:05.274Z,1008.53
2017-08-11T03:21:45.643Z,1008.53
2017-08-11T03:22:26.053Z,1008.5
2017-08-11T03:23:06.644Z,1008.52
2017-08-11T03:23:47.046Z,1008.52
2017-08-11T03:24:28.731Z,1008.51
2017-08-11T03:25:08.967Z,1008.48
2017-08-11T03:25:49.343Z,1008.53
2017-08-11T03:26:29.786Z,1008.49
2017-08-11T03:27:10.162Z,1008.49
2017-08-11T03:27:50.746Z,1008.53
2017-08-11T03:28:31.045Z,1008.52
2017-08-11T03:29:11.712Z,1008.49
2017-08-11T03:29:54.315Z,1008.52
2017-08-11T03:30:34.623Z,1008.54
2017-08-11T03:31:15.079Z,1008.51
2017-08-11T03:31:55.488Z,1008.5
2017-08-11T03:32:36.270Z,1008.5
2017-08-11T03:33:16.457Z,1008.48
2017-08-11T03:33:56.849Z,1008.47
2017-08-11T03:34:37.372Z,1008.46
2017-08-11T03:35:18.312Z,1008.48
2017-08-11T03:35:58.705Z,1008.41
2017-08-11T03:36:39.338Z,1008.44
2017-08-11T03:37:19.817Z,1008.44
2017-08-11T03:38:00.230Z,1008.45
2017-08-11T03:38:40.719Z,1008.46
2017-08-11T03:39:22.163Z,1008.51
2017-08-11T03:40:03.978Z,1008.43
2017-08-11T03:40:45.202Z,1008.47
2017-08-11T03:41:24.838Z,1008.5
2017-08-11T03:42:05.516Z,1008.51
2017-08-11T03:42:45.853Z,1008.46
2017-08-11T03:43:26.519Z,1008.47
2017-08-11T03:44:06.767Z,1008.46
2017-08-11T03:46:39.667Z,1008.48
2017-08-11T03:47:20.999Z,1008.48
2017-08-11T03:48:01.460Z,1008.48
2017-08-11T03:48:41.942Z,1008.47
2017-08-11T03:49:22.945Z,1008.48
2017-08-11T03:50:03.818Z,1008.46
2017-08-11T03:50:44.590Z,1008.49
2017-08-11T03:51:25.029Z,1008.49
2017-08-11T03:52:05.373Z,1008.53
2017-08-11T03:52:46.351Z,1008.49
2017-08-11T03:53:28.155Z,1008.53
2017-08-11T03:54:08.518Z,1008.51
2017-08-11T03:54:49.123Z,1008.51
2017-08-11T03:55:30.208Z,1008.5
2017-08-11T03:56:10.979Z,1008.52
2017-08-11T03:56:51.395Z,1008.48
2017-08-11T03:57:31.761Z,1008.43
2017-08-11T03:58:13.349Z,1008.43
2017-08-11T03:58:53.798Z,1008.41
2017-08-11T03:59:34.173Z,1008.39
2017-08-11T04:00:14.496Z,1008.37
2017-08-11T04:00:55.237Z,1008.41
2017-08-11T04:01:36.343Z,1008.38
2017-08-11T04:02:16.961Z,1008.39
2017-08-11T04:02:57.916Z,1008.36
2017-08-11T04:03:39.446Z,1008.37
2017-08-11T04:04:19.884Z,1008.35
2017-08-11T04:05:00.388Z,1008.35
2017-08-11T04:05:40.907Z,1008.37
2017-08-11T04:06:21.328Z,1008.37
2017-08-11T04:07:01.730Z,1008.39
2017-08-11T04:07:42.133Z,1008.37
2017-08-11T04:08:22.629Z,1008.41
2017-08-11T04:09:03.287Z,1008.38
2017-08-11T04:09:43.799Z,1008.38
2017-08-11T04:10:24.026Z,1008.37
2017-08-11T04:11:11.836Z,1008.41
2017-08-11T04:11:52.198Z,1008.38
2017-08-11T04:12:33.143Z,1008.37
2017-08-11T04:13:13.956Z,1008.33
2017-08-11T04:13:54.575Z,1008.33
2017-08-11T04:14:35.022Z,1008.27
2017-08-11T04:15:15.475Z,1008.24
2017-08-11T04:20:17.560Z,1008.19
2017-08-11T04:20:59.878Z,1008.2
2017-08-11T04:21:40.636Z,1008.2
2017-08-11T04:22:21.211Z,1008.18
2017-08-11T04:23:02.237Z,1008.18
2017-08-11T04:23:43.413Z,1008.16
2017-08-11T04:24:24.057Z,1008.15
2017-08-11T04:25:04.506Z,1008.16
2017-08-11T04:25:45.162Z,1008.2
2017-08-11T04:26:25.552Z,1008.22
2017-08-11T04:27:07.292Z,1008.23
2017-08-11T04:27:47.909Z,1008.24
2017-08-11T04:28:28.549Z,1008.21
2017-08-11T04:29:11.190Z,1008.2
2017-08-11T04:29:51.551Z,1008.23
2017-08-11T04:30:32.914Z,1008.19
2017-08-11T04:31:14.385Z,1008.22
2017-08-11T04:31:54.829Z,1008.22
2017-08-11T04:32:35.707Z,1008.2
2017-08-11T04:33:16.472Z,1008.18
2017-08-11T04:33:58.116Z,1008.21
2017-08-11T04:34:38.546Z,1008.22
2017-08-11T04:35:23.533Z,1008.21
2017-08-11T04:36:03.738Z,1008.23
2017-08-11T04:36:44.250Z,1008.25
2017-08-11T04:37:24.693Z,1008.19
2017-08-11T04:38:05.269Z,1008.23
2017-08-11T04:38:46.032Z,1008.17
2017-08-11T04:39:28.889Z,1008.22
2017-08-11T04:40:10.151Z,1008.19
2017-08-11T04:40:50.419Z,1008.18
2017-08-11T04:41:31.348Z,1008.19
2017-08-11T04:42:14.215Z,1008.14
2017-08-11T04:42:54.807Z,1008.13
2017-08-11T04:43:35.730Z,1008.13
2017-08-11T04:44:16.240Z,1008.14
2017-08-11T04:44:56.945Z,1008.15
2017-08-11T04:45:37.450Z,1008.1
2017-08-11T04:46:17.872Z,1008.11
2017-08-11T04:46:58.374Z,1008.1
2017-08-11T04:47:40.736Z,1008.05
2017-08-11T04:48:21.157Z,1008.02
2017-08-11T04:49:05.023Z,1008.01
2017-08-11T04:49:46.351Z,1007.97
2017-08-11T04:50:26.701Z,1007.99
2017-08-11T04:51:07.346Z,1007.98
2017-08-11T04:51:47.807Z,1007.93
2017-08-11T04:52:28.481Z,1007.85
2017-08-11T04:54:53.079Z,1007.97
2017-08-11T04:55:52.800Z,1007.98
2017-08-11T04:56:47.565Z,1008
2017-08-11T04:57:44.512Z,1008.04
2017-08-11T04:58:27.612Z,1008.03
2017-08-11T04:59:08.365Z,1008.06
2017-08-11T04:59:50.378Z,1008.1
2017-08-11T05:00:31.393Z,1008.05
2017-08-11T05:01:12.051Z,1008.09
2017-08-11T05:01:53.261Z,1008.11
2017-08-11T05:02:34.026Z,1008.17
2017-08-11T05:03:15.176Z,1008.15
2017-08-11T05:03:55.417Z,1008.16
2017-08-11T05:04:35.963Z,1008.18
2017-08-11T05:05:16.905Z,1008.18
2017-08-11T05:05:58.305Z,1008.16
2017-08-11T05:06:38.962Z,1008.17
2017-08-11T05:07:19.854Z,1008.17
2017-08-11T05:08:03.731Z,1008.17
2017-08-11T05:08:44.152Z,1008.17
2017-08-11T05:09:24.613Z,1008.13
2017-08-11T05:10:07.793Z,1008.08
2017-08-11T05:10:48.297Z,1008.08
2017-08-11T05:11:29.115Z,1008.08
2017-08-11T05:12:09.969Z,1008.08
2017-08-11T05:12:50.294Z,1008.07
2017-08-11T05:13:30.729Z,1008.11
2017-08-11T05:14:11.349Z,1008.14
2017-08-11T05:14:54.454Z,1008.14
2017-08-11T05:15:35.143Z,1008.18
2017-08-11T05:16:17.863Z,1008.19
2017-08-11T05:16:58.411Z,1008.23
2017-08-11T05:17:38.681Z,1008.19
2017-08-11T05:18:19.463Z,1008.18
2017-08-11T05:18:59.940Z,1008.2
2017-08-11T05:19:40.537Z,1008.21
2017-08-11T05:20:21.596Z,1008.18
2017-08-11T05:21:01.606Z,1008.12
2017-08-11T05:21:43.096Z,1008.17
2017-08-11T05:22:23.482Z,1008.15
2017-08-11T05:23:04.096Z,1008.18
2017-08-11T05:23:44.558Z,1008.23
2017-08-11T05:24:25.163Z,1008.19
2017-08-11T05:25:07.360Z,1008.24
2017-08-11T05:25:49.795Z,1008.26
2017-08-11T05:26:31.674Z,1008.25
2017-08-11T05:27:12.144Z,1008.27
2017-08-11T05:27:53.491Z,1008.25
2017-08-11T05:28:39.454Z,1008.25
2017-08-11T05:29:22.498Z,1008.2
2017-08-11T05:30:03.576Z,1008.23
2017-08-11T05:30:45.307Z,1008.25
2017-08-11T05:31:26.593Z,1008.24
2017-08-11T05:32:07.211Z,1008.23
2017-08-11T05:32:50.678Z,1008.22
2017-08-11T05:33:31.969Z,1008.2
2017-08-11T05:34:13.089Z,1008.22
2017-08-11T05:34:53.941Z,1008.23
2017-08-11T05:35:35.767Z,1008.22
2017-08-11T05:36:16.386Z,1008.24
2017-08-11T05:38:08.579Z,1008.29
2017-08-11T05:39:10.271Z,1008.3
2017-08-11T05:40:17.410Z,1008.29
2017-08-11T05:42:57.239Z,1008.29
2017-08-11T05:43:36.833Z,1008.27
2017-08-11T05:44:17.350Z,1008.33
2017-08-11T05:44:57.858Z,1008.34
2017-08-11T05:45:38.515Z,1008.34
2017-08-11T05:46:19.040Z,1008.32
2017-08-11T05:46:59.664Z,1008.37
2017-08-11T05:51:13.676Z,1008.42
2017-08-11T05:52:14.401Z,1008.39
2017-08-11T05:53:14.432Z,1008.37
2017-08-11T05:54:18.198Z,1008.38
2017-08-11T05:55:18.422Z,1008.4
2017-08-11T05:55:58.857Z,1008.35
2017-08-11T05:56:39.298Z,1008.38
2017-08-11T05:57:19.688Z,1008.39
2017-08-11T05:58:00.135Z,1008.36
2017-08-11T05:58:40.656Z,1008.35
2017-08-11T05:59:20.878Z,1008.39
2017-08-11T06:00:01.284Z,1008.37
2017-08-11T06:00:41.760Z,1008.36
2017-08-11T06:01:22.449Z,1008.31
2017-08-11T06:02:02.984Z,1008.33
2017-08-11T06:02:43.476Z,1008.32
2017-08-11T06:03:23.892Z,1008.29
2017-08-11T06:04:04.351Z,1008.26
2017-08-11T06:04:45.230Z,1008.24
2017-08-11T06:05:26.708Z,1008.24
2017-08-11T06:06:07.169Z,1008.22
2017-08-11T06:06:47.648Z,1008.22
2017-08-11T06:07:28.475Z,1008.23
2017-08-11T06:08:08.958Z,1008.22
2017-08-11T06:08:49.305Z,1008.22
2017-08-11T06:09:29.753Z,1008.19
2017-08-11T06:10:10.133Z,1008.16
2017-08-11T06:10:50.552Z,1008.2
2017-08-11T06:11:31.073Z,1008.25
2017-08-11T06:12:11.508Z,1008.21
2017-08-11T06:12:51.852Z,1008.28
2017-08-11T06:13:32.526Z,1008.23
2017-08-11T06:14:12.756Z,1008.19
2017-08-11T06:14:53.232Z,1008.22
2017-08-11T06:15:33.668Z,1008.28
2017-08-11T06:16:14.161Z,1008.25
2017-08-11T06:16:54.682Z,1008.21
2017-08-11T06:17:35.689Z,1008.24
2017-08-11T06:18:16.082Z,1008.21
2017-08-11T06:18:59.173Z,1008.22
2017-08-11T06:19:39.579Z,1008.26
2017-08-11T06:20:20.000Z,1008.24
2017-08-11T06:21:00.552Z,1008.28
2017-08-11T06:21:40.968Z,1008.29
2017-08-11T06:22:21.384Z,1008.26
2017-08-11T06:23:01.952Z,1008.26
2017-08-11T06:23:42.347Z,1008.26
2017-08-11T06:24:22.788Z,1008.24
2017-08-11T06:25:03.466Z,1008.21
2017-08-11T06:25:43.852Z,1008.17
2017-08-11T06:26:24.264Z,1008.2
2017-08-11T06:27:04.698Z,1008.2
2017-08-11T06:27:45.232Z,1008.14
2017-08-11T06:28:25.645Z,1008.17
2017-08-11T06:29:06.028Z,1008.17
2017-08-11T06:29:46.630Z,1008.14
2017-08-11T06:30:27.129Z,1008.13
2017-08-11T06:31:07.495Z,1008.16
2017-08-11T06:31:48.030Z,1008.2
2017-08-11T06:32:29.417Z,1008.19
2017-08-11T06:33:10.298Z,1008.2
2017-08-11T06:33:53.656Z,1008.25
2017-08-11T06:34:33.388Z,1008.24
2017-08-11T06:35:13.832Z,1008.2
2017-08-11T06:35:54.375Z,1008.19
2017-08-11T06:36:34.785Z,1008.17
2017-08-11T06:37:15.282Z,1008.17
2017-08-11T06:37:55.566Z,1008.15
2017-08-11T06:38:36.400Z,1008.18
2017-08-11T06:39:16.609Z,1008.17
2017-08-11T06:39:57.293Z,1008.14
2017-08-11T06:40:37.721Z,1008.21
2017-08-11T06:41:18.105Z,1008.19
2017-08-11T06:41:58.565Z,1008.17
2017-08-11T06:42:38.999Z,1008.21
2017-08-11T06:43:19.501Z,1008.17
2017-08-11T06:43:59.864Z,1008.19
2017-08-11T06:44:40.317Z,1008.24
2017-08-11T06:45:20.708Z,1008.2
2017-08-11T06:46:01.921Z,1008.19
2017-08-11T06:46:42.384Z,1008.23
2017-08-11T06:47:22.742Z,1008.22
2017-08-11T06:48:03.118Z,1008.22
2017-08-11T06:48:43.622Z,1008.2
2017-08-11T06:49:24.008Z,1008.23
2017-08-11T06:50:04.443Z,1008.24
2017-08-11T06:50:44.896Z,1008.22
2017-08-11T06:51:25.221Z,1008.21
2017-08-11T06:52:05.715Z,1008.23
2017-08-11T06:52:47.071Z,1008.24
2017-08-11T06:53:27.507Z,1008.29
2017-08-11T06:54:08.867Z,1008.27
2017-08-11T06:54:49.477Z,1008.28
2017-08-11T06:55:30.321Z,1008.26
2017-08-11T06:56:10.838Z,1008.31
2017-08-11T06:56:51.363Z,1008.31
2017-08-11T06:57:31.783Z,1008.3
2017-08-11T06:58:12.342Z,1008.26
2017-08-11T06:58:52.660Z,1008.28
2017-08-11T06:59:33.105Z,1008.27
2017-08-11T07:00:13.489Z,1008.28
2017-08-11T07:00:53.873Z,1008.27
2017-08-11T07:01:34.387Z,1008.32
2017-08-11T07:02:14.733Z,1008.31
2017-08-11T07:02:55.123Z,1008.3
2017-08-11T07:03:35.724Z,1008.31
2017-08-11T07:04:15.992Z,1008.35
2017-08-11T07:04:56.434Z,1008.35
2017-08-11T07:05:36.797Z,1008.32
2017-08-11T07:06:17.177Z,1008.38
2017-08-11T07:06:57.563Z,1008.36
2017-08-11T07:07:37.987Z,1008.38
2017-08-11T07:08:18.396Z,1008.34
2017-08-11T07:08:58.824Z,1008.37
2017-08-11T07:09:39.242Z,1008.34
2017-08-11T07:10:19.646Z,1008.36
2017-08-11T07:11:00.192Z,1008.35
2017-08-11T07:11:40.518Z,1008.35
2017-08-11T07:12:20.976Z,1008.36
2017-08-11T07:13:01.374Z,1008.4
2017-08-11T07:13:41.895Z,1008.37
2017-08-11T07:14:22.259Z,1008.36
2017-08-11T07:15:02.650Z,1008.36
2017-08-11T07:15:43.019Z,1008.36
2017-08-11T07:16:23.414Z,1008.36
2017-08-11T07:17:03.855Z,1008.33
2017-08-11T07:17:44.258Z,1008.34
2017-08-11T07:18:24.670Z,1008.34
2017-08-11T07:19:05.059Z,1008.37
2017-08-11T07:19:45.585Z,1008.36
2017-08-11T07:20:25.902Z,1008.36
2017-08-11T07:21:06.277Z,1008.37
2017-08-11T07:21:46.795Z,1008.35
2017-08-11T07:22:27.293Z,1008.39
2017-08-11T07:24:55.464Z,1008.38
2017-08-11T07:25:35.882Z,1008.38
2017-08-11T07:26:16.273Z,1008.4
2017-08-11T07:26:56.650Z,1008.45
2017-08-11T07:27:37.023Z,1008.42
2017-08-11T07:28:17.462Z,1008.44
2017-08-11T07:28:57.826Z,1008.44
2017-08-11T07:29:38.266Z,1008.45
2017-08-11T07:31:53.013Z,1008.53
2017-08-11T07:34:13.200Z,1008.51
2017-08-11T07:34:53.569Z,1008.57
2017-08-11T07:35:34.031Z,1008.56
2017-08-11T07:36:14.550Z,1008.55
2017-08-11T07:36:55.151Z,1008.54
2017-08-11T07:37:35.758Z,1008.5
2017-08-11T07:38:16.097Z,1008.5
2017-08-11T07:38:56.518Z,1008.48
2017-08-11T07:39:36.933Z,1008.52
2017-08-11T07:41:50.902Z,1008.46
2017-08-11T07:42:31.254Z,1008.51
2017-08-11T07:44:45.794Z,1008.41
2017-08-11T07:45:26.162Z,1008.42
2017-08-11T07:46:06.577Z,1008.42
2017-08-11T07:46:47.186Z,1008.45
2017-08-11T07:47:27.511Z,1008.47
2017-08-11T07:48:08.605Z,1008.51
2017-08-11T07:48:49.650Z,1008.5
2017-08-11T07:49:30.790Z,1008.48
2017-08-11T07:50:11.090Z,1008.51
2017-08-11T07:50:51.513Z,1008.47
2017-08-11T07:51:32.008Z,1008.51
2017-08-11T07:52:12.350Z,1008.49
2017-08-11T07:54:06.757Z,1008.53
2017-08-11T07:55:00.118Z,1008.57
2017-08-11T07:55:40.690Z,1008.6
2017-08-11T07:56:21.046Z,1008.65
2017-08-11T07:57:01.509Z,1008.71
2017-08-11T07:57:41.932Z,1008.72
2017-08-11T07:58:22.355Z,1008.71
2017-08-11T07:59:02.667Z,1008.74
2017-08-11T07:59:43.071Z,1008.75
2017-08-11T08:02:03.736Z,1008.64
2017-08-11T08:02:43.904Z,1008.68
2017-08-11T08:03:24.522Z,1008.73
2017-08-11T08:04:04.737Z,1008.71
2017-08-11T08:04:45.643Z,1008.73
2017-08-11T08:05:26.021Z,1008.67
2017-08-11T08:06:06.960Z,1008.7
2017-08-11T08:06:47.420Z,1008.69
2017-08-11T08:07:27.940Z,1008.67
2017-08-11T08:08:08.209Z,1008.69
2017-08-11T08:08:48.653Z,1008.72
2017-08-11T08:09:29.033Z,1008.67
2017-08-11T08:10:11.396Z,1008.64
2017-08-11T08:10:51.677Z,1008.64
2017-08-11T08:11:32.083Z,1008.67
2017-08-11T08:12:12.534Z,1008.72
2017-08-11T08:12:52.901Z,1008.72
2017-08-11T08:13:33.333Z,1008.71
2017-08-11T08:14:13.805Z,1008.7
2017-08-11T08:14:54.239Z,1008.67
2017-08-11T08:15:34.719Z,1008.71
2017-08-11T08:16:15.127Z,1008.71
2017-08-11T08:16:55.560Z,1008.72
2017-08-11T08:23:49.301Z,1008.6
2017-08-11T08:25:45.887Z,1008.65
2017-08-11T08:26:26.278Z,1008.65
2017-08-11T08:27:06.726Z,1008.69
2017-08-11T08:27:47.124Z,1008.69
2017-08-11T08:28:27.559Z,1008.65
2017-08-11T08:29:07.968Z,1008.72
2017-08-11T08:29:48.438Z,1008.68
2017-08-11T08:30:29.869Z,1008.71
2017-08-11T08:31:10.349Z,1008.7
2017-08-11T08:31:50.688Z,1008.68
2017-08-11T08:32:31.253Z,1008.72
2017-08-11T08:33:11.674Z,1008.77
2017-08-11T08:33:52.078Z,1008.8
2017-08-11T08:34:32.470Z,1008.83
2017-08-11T08:35:12.877Z,1008.88
2017-08-11T08:35:53.231Z,1008.83
2017-08-11T08:36:33.659Z,1008.87
2017-08-11T08:37:14.180Z,1008.79
2017-08-11T08:37:54.559Z,1008.77
2017-08-11T08:38:34.965Z,1008.64
2017-08-11T08:39:15.744Z,1008.6
2017-08-11T08:39:57.547Z,1008.52
2017-08-11T08:40:38.976Z,1008.56
2017-08-11T08:41:19.406Z,1008.53
2017-08-11T08:41:59.976Z,1008.6
2017-08-11T08:42:40.404Z,1008.58
2017-08-11T08:43:21.128Z,1008.63
2017-08-11T08:44:03.157Z,1008.55
2017-08-11T08:44:44.165Z,1008.51
2017-08-11T08:45:25.603Z,1008.51
2017-08-11T08:46:06.073Z,1008.53
2017-08-11T08:46:46.481Z,1008.57
2017-08-11T08:47:27.291Z,1008.6
2017-08-11T08:48:07.763Z,1008.66
2017-08-11T08:48:48.051Z,1008.67
2017-08-11T08:49:28.513Z,1008.76
2017-08-11T08:50:08.993Z,1008.81
2017-08-11T08:50:49.594Z,1008.77
2017-08-11T08:51:30.036Z,1008.74
2017-08-11T08:52:10.465Z,1008.71
2017-08-11T08:52:50.895Z,1008.79
2017-08-11T08:53:31.335Z,1008.85
2017-08-11T08:54:11.699Z,1008.87
2017-08-11T08:54:53.099Z,1008.89
2017-08-11T08:55:33.543Z,1008.84
2017-08-11T08:56:14.013Z,1008.75
2017-08-11T08:56:54.340Z,1008.63
2017-08-11T08:57:34.886Z,1008.63
2017-08-11T08:58:15.245Z,1008.55
2017-08-11T08:58:56.345Z,1008.58